Time;durP1;ratioP1;P1;durP2;ratioP2;P2;SDS_P1;SDS_P2;PMS_P1;PMS_P2;Temp;Humidity;BMP_temperature;BMP_pressure;BME280_temperature;BME280_humidity;BME280_pressure;Samples;Min_cycle;Max_cycle;Signal;HPM_P1;HPM_P2
2023/03/19 00:01:58;;;;;;;15.88;1.55;;;6.50;99.90;;;;;;4959742;28;20121;-90
2023/03/19 00:04:25;;;;;;;11.52;1.58;;;6.50;99.90;;;;;;4959306;28;20124;-92
2023/03/19 00:06:51;;;;;;;14.60;1.75;;;6.50;99.90;;;;;;4959246;28;20392;-91
2023/03/19 00:09:18;;;;;;;8.35;1.25;;;6.40;99.90;;;;;;4959268;28;20034;-91
2023/03/19 00:11:44;;;;;;;12.40;1.23;;;6.40;99.90;;;;;;4958941;28;20038;-92
2023/03/19 00:14:10;;;;;;;12.75;1.88;;;6.50;99.90;;;;;;4958814;28;20054;-91
2023/03/19 00:16:36;;;;;;;15.77;1.67;;;6.50;99.90;;;;;;4958938;28;20037;-90
2023/03/19 00:19:02;;;;;;;9.52;1.20;;;6.40;99.90;;;;;;4958991;28;20041;-91
2023/03/19 00:21:28;;;;;;;16.65;1.48;;;6.40;99.90;;;;;;4958936;28;20091;-91
2023/03/19 00:23:59;;;;;;;9.10;1.58;;;6.40;99.90;;;;;;4958953;28;20058;-92
2023/03/19 00:26:26;;;;;;;11.85;1.80;;;6.40;99.90;;;;;;4959287;28;20023;-92
2023/03/19 00:28:52;;;;;;;7.20;1.35;;;6.40;99.90;;;;;;4959003;28;20030;-91
2023/03/19 00:31:18;;;;;;;8.07;1.23;;;6.40;99.90;;;;;;4958851;28;20046;-91
2023/03/19 00:33:44;;;;;;;10.50;1.40;;;6.40;99.90;;;;;;4958750;28;20030;-91
2023/03/19 00:36:10;;;;;;;9.13;1.30;;;6.40;99.90;;;;;;4958843;28;20027;-92
2023/03/19 00:38:36;;;;;;;11.93;1.52;;;6.40;99.90;;;;;;4958379;28;20026;-91
2023/03/19 00:41:04;;;;;;;8.80;1.30;;;6.40;99.90;;;;;;4958439;28;20338;-91
2023/03/19 00:43:30;;;;;;;16.77;1.65;;;6.40;99.90;;;;;;4958608;28;20027;-92
2023/03/19 00:45:57;;;;;;;8.68;1.23;;;6.40;99.90;;;;;;4958510;28;20022;-91
2023/03/19 00:48:23;;;;;;;13.10;2.35;;;6.40;99.90;;;;;;4957863;28;20033;-91
2023/03/19 00:50:49;;;;;;;13.35;1.50;;;6.30;99.90;;;;;;4957892;28;20027;-91
2023/03/19 00:53:15;;;;;;;13.75;1.33;;;6.40;99.90;;;;;;4958122;28;20496;-92
2023/03/19 00:55:41;;;;;;;10.65;2.10;;;6.40;99.90;;;;;;4958347;28;20034;-91
2023/03/19 00:58:09;;;;;;;12.48;2.05;;;6.40;99.90;;;;;;4958282;28;20377;-93
2023/03/19 01:00:35;;;;;;;19.17;1.90;;;6.40;99.90;;;;;;4958322;28;20547;-91
2023/03/19 01:03:01;;;;;;;17.75;2.22;;;6.40;99.90;;;;;;4942681;28;20053;-91
2023/03/19 01:05:27;;;;;;;11.07;2.40;;;6.40;99.90;;;;;;4958878;28;20031;-91
2023/03/19 01:07:52;;;;;;;12.05;1.80;;;6.40;99.90;;;;;;4959175;28;20033;-90
2023/03/19 01:10:19;;;;;;;13.40;2.83;;;6.40;99.90;;;;;;4958968;28;20031;-91
2023/03/19 01:12:45;;;;;;;11.75;1.50;;;6.40;99.90;;;;;;4957843;28;20492;-92
2023/03/19 01:15:11;;;;;;;11.07;1.40;;;6.40;99.90;;;;;;4957875;28;20027;-92
2023/03/19 01:17:36;;;;;;;9.18;1.30;;;6.40;99.90;;;;;;4957967;28;20105;-92
2023/03/19 01:20:11;;;;;;;11.32;1.27;;;6.40;99.90;;;;;;4958263;28;20022;-91
2023/03/19 01:22:37;;;;;;;20.27;1.70;;;6.40;99.90;;;;;;4974814;28;20027;-92
2023/03/19 01:25:04;;;;;;;8.80;0.95;;;6.40;99.90;;;;;;4957973;28;20123;-92
2023/03/19 01:27:30;;;;;;;12.00;1.48;;;6.40;99.90;;;;;;4957634;28;20035;-92
2023/03/19 01:29:56;;;;;;;12.13;2.03;;;6.30;99.90;;;;;;4957922;28;20085;-91
2023/03/19 01:32:22;;;;;;;15.27;2.35;;;6.30;99.90;;;;;;4957618;28;20130;-92
2023/03/19 01:34:52;;;;;;;13.30;1.70;;;6.30;99.90;;;;;;4957735;28;20066;-92
2023/03/19 01:37:18;;;;;;;15.23;1.90;;;6.30;99.90;;;;;;4958903;28;20526;-91
2023/03/19 01:39:44;;;;;;;9.57;1.63;;;6.30;99.90;;;;;;4958009;28;20031;-91
2023/03/19 01:42:10;;;;;;;10.98;2.15;;;6.30;99.90;;;;;;4957588;28;20114;-91
2023/03/19 01:44:39;;;;;;;13.82;2.40;;;6.30;99.90;;;;;;4957703;28;20057;-91
2023/03/19 01:47:24;;;;;;;10.40;1.40;;;6.30;99.90;;;;;;4957865;28;20031;-91
2023/03/19 01:49:54;;;;;;;9.65;1.52;;;6.30;99.90;;;;;;4957542;28;20063;-91
2023/03/19 01:52:22;;;;;;;12.20;1.58;;;6.30;99.90;;;;;;4957452;28;20547;-92
2023/03/19 01:54:48;;;;;;;12.73;1.60;;;6.30;99.90;;;;;;4957506;28;20037;-92
2023/03/19 01:57:15;;;;;;;6.60;1.60;;;6.30;99.90;;;;;;4957505;28;20027;-91
2023/03/19 01:59:51;;;;;;;14.93;1.40;;;6.20;99.90;;;;;;4957465;28;20109;-91
2023/03/19 02:02:25;;;;;;;9.38;1.45;;;6.30;99.90;;;;;;4961667;28;20030;-93
2023/03/19 02:05:24;;;;;;;4.38;0.80;;;6.30;99.90;;;;;;4961478;28;20085;-91
2023/03/19 02:08:03;;;;;;;10.43;2.25;;;6.30;99.90;;;;;;4961225;28;20031;-92
2023/03/19 02:10:30;;;;;;;16.13;1.60;;;6.20;99.90;;;;;;4961331;28;20029;-93
2023/03/19 02:12:56;;;;;;;13.93;3.17;;;6.30;99.90;;;;;;4961097;28;20039;-91
2023/03/19 02:15:22;;;;;;;15.25;1.75;;;6.30;99.90;;;;;;4961563;28;20053;-92
2023/03/19 02:17:48;;;;;;;19.55;3.25;;;6.30;99.90;;;;;;4960842;28;20036;-92
2023/03/19 02:20:29;;;;;;;12.15;2.25;;;6.30;99.90;;;;;;4961068;28;20038;-92
2023/03/19 02:23:14;;;;;;;20.90;2.10;;;6.30;99.90;;;;;;4960891;28;20391;-91
2023/03/19 02:25:46;;;;;;;9.10;1.52;;;6.30;99.90;;;;;;4961274;28;20027;-92
2023/03/19 02:28:15;;;;;;;12.20;2.35;;;6.30;99.90;;;;;;4960873;28;20117;-92
2023/03/19 02:30:43;;;;;;;8.77;1.80;;;6.30;99.90;;;;;;4960932;28;20023;-93
2023/03/19 02:33:14;;;;;;;9.48;3.10;;;6.30;99.90;;;;;;4960580;28;20042;-93
2023/03/19 02:35:42;;;;;;;8.57;1.35;;;6.20;99.90;;;;;;4960593;28;20034;-91
2023/03/19 02:38:10;;;;;;;8.82;1.30;;;6.20;99.90;;;;;;4960148;28;20039;-91
2023/03/19 02:40:40;;;;;;;12.02;1.48;;;6.20;99.90;;;;;;4961517;28;20171;-91
2023/03/19 02:43:06;;;;;;;14.30;1.67;;;6.20;99.90;;;;;;4978456;28;20110;-91
2023/03/19 02:45:31;;;;;;;11.65;1.70;;;6.20;99.90;;;;;;4961045;28;20460;-92
2023/03/19 02:47:59;;;;;;;11.18;2.22;;;6.20;99.90;;;;;;4960899;28;20076;-92
2023/03/19 02:50:25;;;;;;;10.75;1.90;;;6.20;99.90;;;;;;4960686;28;20046;-91
2023/03/19 02:52:51;;;;;;;13.02;2.20;;;6.20;99.90;;;;;;4960696;28;20437;-93
2023/03/19 02:55:17;;;;;;;10.48;2.83;;;6.20;99.90;;;;;;4977802;28;20042;-91
2023/03/19 02:57:44;;;;;;;15.50;2.33;;;6.20;99.90;;;;;;4960655;28;20054;-92
2023/03/19 03:00:11;;;;;;;20.45;2.92;;;6.10;99.90;;;;;;4960750;28;20019;-92
2023/03/19 03:02:37;;;;;;;11.88;2.92;;;6.20;99.90;;;;;;4960785;28;20022;-91
2023/03/19 03:05:05;;;;;;;13.73;2.10;;;6.20;99.90;;;;;;4977552;28;20023;-90
2023/03/19 03:07:31;;;;;;;12.13;2.25;;;6.10;99.90;;;;;;4961153;28;20094;-92
2023/03/19 03:09:57;;;;;;;9.02;2.38;;;6.20;99.90;;;;;;4962091;28;20030;-91
2023/03/19 03:12:25;;;;;;;12.23;1.60;;;6.20;99.90;;;;;;4963652;28;20102;-90
2023/03/19 03:14:50;;;;;;;16.90;2.20;;;6.20;99.90;;;;;;4953097;28;20051;-92
2023/03/19 03:17:16;;;;;;;13.90;2.03;;;6.20;99.90;;;;;;4962681;28;20154;-92
2023/03/19 03:19:42;;;;;;;13.27;2.30;;;6.20;99.90;;;;;;4974710;28;20025;-91
2023/03/19 03:22:08;;;;;;;15.35;2.28;;;6.10;99.90;;;;;;4968610;28;20035;-92
2023/03/19 03:24:33;;;;;;;8.02;2.10;;;6.10;99.90;;;;;;4963164;28;20061;-91
2023/03/19 03:26:59;;;;;;;14.40;2.20;;;6.10;99.90;;;;;;4971101;28;20031;-92
2023/03/19 03:29:25;;;;;;;11.68;2.03;;;6.10;99.90;;;;;;4978573;28;20031;-90
2023/03/19 03:31:51;;;;;;;12.10;1.85;;;6.10;99.90;;;;;;4982066;28;20018;-92
2023/03/19 03:34:17;;;;;;;16.75;2.20;;;6.10;99.90;;;;;;4983763;28;20018;-94
2023/03/19 03:36:43;;;;;;;10.05;1.63;;;6.10;99.90;;;;;;4983913;28;20098;-91
2023/03/19 03:39:09;;;;;;;14.10;2.08;;;6.10;99.90;;;;;;4983491;28;20045;-93
2023/03/19 03:41:35;;;;;;;12.50;1.70;;;6.10;99.90;;;;;;4977424;28;20023;-92
2023/03/19 03:44:02;;;;;;;12.50;1.83;;;6.10;99.90;;;;;;4980659;28;20041;-91
2023/03/19 03:46:27;;;;;;;13.73;3.03;;;6.10;99.90;;;;;;4996521;28;20026;-93
2023/03/19 03:48:53;;;;;;;11.43;2.08;;;6.10;99.90;;;;;;4979773;28;20026;-93
2023/03/19 03:51:19;;;;;;;17.77;2.92;;;6.10;99.90;;;;;;4980143;28;20054;-93
2023/03/19 03:53:45;;;;;;;15.60;1.80;;;6.00;99.90;;;;;;4977777;28;20050;-92
2023/03/19 03:56:10;;;;;;;14.68;2.42;;;6.10;99.90;;;;;;4963577;28;20019;-92
2023/03/19 03:58:36;;;;;;;12.55;2.05;;;6.10;99.90;;;;;;4966042;28;20030;-92
2023/03/19 04:01:02;;;;;;;14.43;2.15;;;6.10;99.90;;;;;;4974084;28;20026;-92
2023/03/19 04:03:28;;;;;;;11.18;1.70;;;6.00;99.90;;;;;;4980397;28;20030;-91
2023/03/19 04:05:54;;;;;;;12.65;1.98;;;6.10;99.90;;;;;;4978782;28;20073;-91
2023/03/19 04:08:19;;;;;;;10.77;2.17;;;6.10;99.90;;;;;;4963944;28;20568;-92
2023/03/19 04:10:45;;;;;;;15.15;2.17;;;6.10;99.90;;;;;;4962756;28;20413;-93
2023/03/19 04:13:12;;;;;;;11.80;1.80;;;6.10;99.90;;;;;;4961449;28;20496;-93
2023/03/19 04:15:41;;;;;;;15.48;2.13;;;6.10;99.90;;;;;;4960953;28;20214;-92
2023/03/19 04:18:07;;;;;;;13.13;1.77;;;6.10;99.90;;;;;;4961692;28;20133;-92
2023/03/19 04:20:33;;;;;;;14.07;1.88;;;6.10;99.90;;;;;;4961826;28;20023;-92
2023/03/19 04:23:01;;;;;;;7.85;1.95;;;6.10;99.90;;;;;;4961903;28;20114;-93
2023/03/19 04:25:26;;;;;;;12.52;2.05;;;6.10;99.90;;;;;;4961153;28;20096;-93
2023/03/19 04:27:52;;;;;;;9.73;1.80;;;6.10;99.90;;;;;;4961297;28;20040;-92
2023/03/19 04:30:18;;;;;;;9.77;1.48;;;6.10;99.90;;;;;;4960699;28;20109;-91
2023/03/19 04:32:45;;;;;;;12.85;1.85;;;6.10;99.90;;;;;;4977559;28;20118;-92
2023/03/19 04:35:11;;;;;;;17.92;2.85;;;6.10;99.90;;;;;;4959673;28;20467;-92
2023/03/19 04:37:36;;;;;;;10.88;1.55;;;6.10;99.90;;;;;;4959239;28;20123;-91
2023/03/19 04:40:03;;;;;;;9.52;2.05;;;6.00;99.90;;;;;;4959794;28;20139;-91
2023/03/19 04:42:28;;;;;;;12.98;1.70;;;6.00;99.90;;;;;;4959213;28;20396;-91
2023/03/19 04:44:54;;;;;;;13.25;1.50;;;6.00;99.90;;;;;;4959483;28;20053;-93
2023/03/19 04:47:20;;;;;;;10.38;1.48;;;6.10;99.90;;;;;;4958504;28;20082;-92
2023/03/19 04:49:46;;;;;;;11.38;1.60;;;6.00;99.90;;;;;;4958870;28;20034;-92
2023/03/19 04:52:12;;;;;;;16.55;2.03;;;6.00;99.90;;;;;;4958646;28;20094;-91
2023/03/19 04:54:37;;;;;;;10.40;1.67;;;6.00;99.90;;;;;;4958949;28;20128;-92
2023/03/19 04:57:03;;;;;;;11.82;2.67;;;6.00;99.90;;;;;;4958908;28;20031;-91
2023/03/19 04:59:29;;;;;;;10.25;1.60;;;6.00;99.90;;;;;;4958487;28;20042;-92
2023/03/19 05:01:54;;;;;;;10.32;2.25;;;6.00;99.90;;;;;;4958797;28;20082;-91
2023/03/19 05:04:20;;;;;;;9.00;1.83;;;6.00;99.90;;;;;;4958855;28;20086;-92
2023/03/19 05:06:46;;;;;;;12.75;2.15;;;6.00;99.90;;;;;;4958985;28;20022;-92
2023/03/19 05:09:11;;;;;;;10.75;1.90;;;6.00;99.90;;;;;;4975951;28;20029;-91
2023/03/19 05:11:38;;;;;;;11.50;1.77;;;5.90;99.90;;;;;;4958661;28;20508;-91
2023/03/19 05:14:04;;;;;;;9.23;1.92;;;5.90;99.90;;;;;;4957537;28;20055;-93
2023/03/19 05:16:30;;;;;;;11.18;1.92;;;6.00;99.90;;;;;;4959205;28;20031;-91
2023/03/19 05:18:56;;;;;;;7.88;1.30;;;5.90;99.90;;;;;;4960484;28;20022;-92
2023/03/19 05:21:21;;;;;;;7.63;1.33;;;6.00;99.90;;;;;;4959064;28;20030;-92
2023/03/19 05:23:51;;;;;;;5.22;1.08;;;6.00;99.90;;;;;;4958281;28;20077;-93
2023/03/19 05:26:17;;;;;;;5.40;1.10;;;6.00;99.90;;;;;;4958118;28;20459;-90
2023/03/19 05:28:43;;;;;;;10.43;1.10;;;6.00;99.90;;;;;;4957909;28;20038;-93
2023/03/19 05:31:09;;;;;;;3.15;1.00;;;6.00;99.90;;;;;;4958389;28;20027;-91
2023/03/19 05:33:35;;;;;;;6.45;1.00;;;6.00;99.90;;;;;;4958786;28;20037;-93
2023/03/19 05:36:01;;;;;;;3.63;0.90;;;6.00;99.90;;;;;;4958319;28;20019;-91
2023/03/19 05:38:27;;;;;;;3.95;0.90;;;6.00;99.90;;;;;;4958660;28;20030;-92
2023/03/19 05:40:53;;;;;;;4.20;1.10;;;6.00;99.90;;;;;;4958313;28;20118;-94
2023/03/19 05:43:18;;;;;;;6.55;1.20;;;6.00;99.90;;;;;;4958012;28;20485;-92
2023/03/19 05:45:51;;;;;;;9.32;2.03;;;6.00;99.90;;;;;;4958221;28;20058;-92
2023/03/19 05:48:17;;;;;;;6.00;1.15;;;6.00;99.90;;;;;;4958080;28;20058;-92
2023/03/19 05:50:43;;;;;;;9.95;1.20;;;6.00;99.90;;;;;;4958690;28;20030;-91
2023/03/19 05:53:10;;;;;;;6.30;1.38;;;6.00;99.90;;;;;;4956814;28;20065;-91
2023/03/19 05:55:36;;;;;;;14.15;1.60;;;6.00;99.90;;;;;;4957975;28;20031;-92
2023/03/19 05:58:02;;;;;;;9.45;1.70;;;6.00;99.90;;;;;;4957757;28;20122;-91
2023/03/19 06:00:27;;;;;;;7.72;1.52;;;6.00;99.90;;;;;;4958144;28;20114;-92
2023/03/19 06:02:53;;;;;;;8.02;2.28;;;6.00;99.90;;;;;;4958355;28;20046;-91
2023/03/19 06:05:20;;;;;;;7.40;1.80;;;6.00;99.90;;;;;;4958822;28;20037;-92
2023/03/19 06:07:45;;;;;;;16.15;3.03;;;6.00;99.90;;;;;;4958857;28;20023;-92
2023/03/19 06:10:12;;;;;;;8.10;1.60;;;6.00;99.90;;;;;;4958195;28;20090;-92
2023/03/19 06:12:37;;;;;;;7.15;1.75;;;6.00;99.90;;;;;;4957949;28;20571;-91
2023/03/19 06:15:03;;;;;;;5.85;1.20;;;6.00;99.90;;;;;;4958122;28;20067;-92
2023/03/19 06:17:29;;;;;;;5.45;1.50;;;6.00;99.90;;;;;;4957873;28;20031;-92
2023/03/19 06:19:55;;;;;;;4.53;1.10;;;6.00;99.90;;;;;;4957711;28;20030;-91
2023/03/19 06:22:21;;;;;;;11.25;2.13;;;6.00;99.90;;;;;;4975017;28;20035;-92
2023/03/19 06:24:46;;;;;;;8.55;1.80;;;6.00;99.90;;;;;;4958638;28;20293;-92
2023/03/19 06:27:12;;;;;;;7.43;1.50;;;6.00;99.90;;;;;;4958321;28;20035;-92
2023/03/19 06:29:38;;;;;;;9.32;1.60;;;6.00;99.90;;;;;;4957898;28;20034;-92
2023/03/19 06:32:04;;;;;;;14.05;1.70;;;6.00;99.90;;;;;;4958011;28;20034;-93
2023/03/19 06:34:30;;;;;;;6.20;1.13;;;6.00;99.90;;;;;;4958180;28;20049;-92
2023/03/19 06:36:56;;;;;;;11.45;2.30;;;6.00;99.90;;;;;;4958333;28;20034;-92
2023/03/19 06:39:23;;;;;;;15.55;1.40;;;6.00;99.90;;;;;;4958465;28;20034;-92
2023/03/19 06:41:48;;;;;;;11.52;1.48;;;5.90;99.90;;;;;;4958476;28;20039;-91
2023/03/19 06:44:14;;;;;;;13.60;1.58;;;5.90;99.90;;;;;;4958213;28;20094;-90
2023/03/19 06:46:40;;;;;;;14.85;1.60;;;6.00;99.90;;;;;;4957516;28;20035;-92
2023/03/19 06:49:06;;;;;;;8.18;1.67;;;6.00;99.90;;;;;;4960965;28;20367;-92
2023/03/19 06:51:31;;;;;;;12.10;2.22;;;6.00;99.90;;;;;;4961090;28;20031;-91
2023/03/19 06:53:57;;;;;;;10.00;1.50;;;6.00;99.90;;;;;;4961270;28;20027;-92
2023/03/19 06:56:23;;;;;;;16.88;2.20;;;6.00;99.90;;;;;;4960812;28;20385;-91
2023/03/19 06:58:48;;;;;;;7.85;1.55;;;6.10;99.90;;;;;;4960697;28;20126;-91
2023/03/19 07:01:17;;;;;;;7.22;1.90;;;6.00;99.90;;;;;;4960731;28;20019;-92
2023/03/19 07:03:43;;;;;;;9.27;1.33;;;6.10;99.90;;;;;;4960962;28;20022;-91
2023/03/19 07:06:09;;;;;;;11.27;1.98;;;6.10;99.90;;;;;;4960968;28;20035;-92
2023/03/19 07:08:34;;;;;;;13.70;1.70;;;6.20;99.90;;;;;;4960425;28;20027;-93
2023/03/19 07:11:05;;;;;;;13.00;2.22;;;6.20;99.90;;;;;;4959944;28;20053;-93
2023/03/19 07:13:31;;;;;;;;;;;6.20;99.90;;;;;;4960533;28;20050;-92
2023/03/19 07:15:58;;;;;;;9.63;2.28;;;6.30;99.90;;;;;;4960373;28;19906;-93
2023/03/19 07:18:24;;;;;;;5.53;1.45;;;6.30;99.90;;;;;;4960058;28;20358;-91
2023/03/19 07:20:51;;;;;;;13.23;1.58;;;6.30;99.90;;;;;;4960114;28;20027;-91
2023/03/19 07:23:17;;;;;;;7.13;1.15;;;6.30;99.90;;;;;;4960952;28;20050;-91
2023/03/19 07:25:46;;;;;;;8.35;1.27;;;6.40;99.90;;;;;;4961279;28;20037;-91
2023/03/19 07:28:12;;;;;;;8.98;1.63;;;6.40;99.90;;;;;;4962168;28;20045;-91
2023/03/19 07:30:38;;;;;;;3.90;1.42;;;6.50;99.90;;;;;;4960471;28;20113;-92
2023/03/19 07:33:06;;;;;;;12.77;1.77;;;6.50;99.90;;;;;;4960610;28;20126;-91
2023/03/19 07:35:32;;;;;;;14.18;2.08;;;6.50;99.90;;;;;;4960643;28;20038;-92
2023/03/19 07:37:59;;;;;;;9.75;2.53;;;6.60;99.90;;;;;;4966146;28;20026;-91
2023/03/19 07:40:25;;;;;;;9.45;1.55;;;6.60;99.90;;;;;;4967509;28;20073;-93
2023/03/19 07:42:50;;;;;;;8.65;1.55;;;6.60;99.90;;;;;;4974054;28;20046;-92
2023/03/19 07:45:16;;;;;;;7.78;1.27;;;6.60;99.90;;;;;;4977731;28;20027;-92
2023/03/19 07:47:51;;;;;;;7.45;1.70;;;6.60;99.90;;;;;;4976912;28;20027;-92
2023/03/19 07:50:17;;;;;;;8.05;1.98;;;6.70;99.90;;;;;;4977778;28;20018;-91
2023/03/19 07:52:50;;;;;;;9.90;1.42;;;6.70;99.90;;;;;;4982867;28;20034;-93
2023/03/19 07:55:16;;;;;;;5.38;1.30;;;6.80;99.90;;;;;;4982905;28;20015;-92
2023/03/19 07:57:41;;;;;;;10.07;1.52;;;6.80;99.90;;;;;;4981968;28;20193;-93
2023/03/19 08:00:09;;;;;;;13.85;2.03;;;6.90;99.90;;;;;;4973479;28;20034;-92
2023/03/19 08:02:35;;;;;;;7.55;1.73;;;6.90;99.90;;;;;;4964142;28;20117;-93
2023/03/19 08:05:03;;;;;;;13.80;3.05;;;6.90;99.90;;;;;;4963430;28;20046;-91
2023/03/19 08:07:29;;;;;;;10.30;1.80;;;7.00;99.90;;;;;;4962444;28;20027;-92
2023/03/19 08:09:57;;;;;;;5.82;1.10;;;7.00;99.90;;;;;;4961347;28;20019;-92
2023/03/19 08:12:23;;;;;;;10.15;1.33;;;7.10;99.90;;;;;;4961340;28;20050;-92
2023/03/19 08:14:49;;;;;;;11.05;1.50;;;7.10;99.90;;;;;;4960648;28;20062;-91
2023/03/19 08:17:16;;;;;;;5.07;1.00;;;7.10;99.90;;;;;;4959971;28;20298;-92
2023/03/19 08:19:42;;;;;;;5.72;0.85;;;7.20;99.90;;;;;;4961402;28;20431;-93
2023/03/19 08:22:08;;;;;;;4.32;1.10;;;7.20;99.90;;;;;;4960769;28;20018;-93
2023/03/19 08:24:34;;;;;;;10.38;1.35;;;7.30;99.90;;;;;;4961307;28;20133;-92
2023/03/19 08:26:59;;;;;;;6.00;1.30;;;7.30;99.90;;;;;;4960792;28;20061;-94
2023/03/19 08:29:26;;;;;;;3.72;1.10;;;7.40;99.90;;;;;;4960480;28;20031;-93
2023/03/19 08:31:56;;;;;;;7.07;1.10;;;7.40;99.90;;;;;;4960523;28;20031;-91
2023/03/19 08:34:23;;;;;;;8.20;1.20;;;7.50;99.90;;;;;;4945215;28;20046;-92
2023/03/19 08:36:49;;;;;;;7.18;1.20;;;7.50;99.90;;;;;;4960582;28;20041;-92
2023/03/19 08:39:15;;;;;;;8.65;1.20;;;7.50;99.90;;;;;;4960537;28;20031;-92
2023/03/19 08:41:41;;;;;;;9.07;1.20;;;7.50;99.90;;;;;;4960937;28;20034;-94
2023/03/19 08:44:07;;;;;;;7.40;1.00;;;7.60;99.90;;;;;;4967008;28;20046;-92
2023/03/19 08:46:32;;;;;;;7.63;1.48;;;7.70;99.90;;;;;;4961308;28;20031;-93
2023/03/19 08:49:00;;;;;;;8.15;1.27;;;7.70;99.90;;;;;;4960401;28;20029;-93
2023/03/19 08:51:27;;;;;;;6.43;1.10;;;7.80;99.90;;;;;;4960467;28;20031;-93
2023/03/19 08:53:53;;;;;;;5.78;1.00;;;7.90;99.90;;;;;;4960576;28;20607;-93
2023/03/19 08:56:18;;;;;;;7.70;1.20;;;8.00;99.90;;;;;;4960163;28;20058;-93
2023/03/19 08:58:44;;;;;;;10.18;1.02;;;8.10;99.90;;;;;;4944664;28;20062;-93
2023/03/19 09:01:12;;;;;;;6.43;1.05;;;8.10;99.90;;;;;;4960215;28;20421;-92
2023/03/19 09:03:40;;;;;;;8.57;1.30;;;8.20;99.90;;;;;;4960483;28;20098;-91
2023/03/19 09:06:08;;;;;;;6.25;1.00;;;8.40;99.90;;;;;;4960100;28;20069;-92
2023/03/19 09:08:37;;;;;;;5.57;1.20;;;8.40;99.90;;;;;;4960057;28;20049;-93
2023/03/19 09:11:04;;;;;;;6.60;0.93;;;8.50;99.90;;;;;;4959535;28;20526;-93
2023/03/19 09:13:29;;;;;;;7.70;2.10;;;8.50;99.90;;;;;;4959920;28;20050;-92
2023/03/19 09:15:55;;;;;;;7.45;1.38;;;8.50;99.90;;;;;;4959961;28;20041;-92
2023/03/19 09:18:24;;;;;;;8.07;1.23;;;8.60;99.90;;;;;;4960195;28;20111;-95
2023/03/19 09:20:52;;;;;;;6.78;2.20;;;8.60;99.90;;;;;;4959565;28;20031;-93
2023/03/19 09:23:18;;;;;;;5.05;1.20;;;8.60;99.90;;;;;;4959693;28;20480;-94
2023/03/19 09:25:45;;;;;;;1.65;0.63;;;8.70;99.90;;;;;;4959839;28;20030;-95
2023/03/19 09:28:11;;;;;;;8.10;1.10;;;8.70;99.90;;;;;;4960198;28;20027;-95
2023/03/19 09:30:40;;;;;;;6.00;0.90;;;8.80;99.90;;;;;;4960258;28;20035;-95
2023/03/19 09:33:07;;;;;;;4.90;0.88;;;8.90;99.90;;;;;;4962508;28;20066;-93
2023/03/19 09:35:35;;;;;;;4.38;0.80;;;9.00;99.90;;;;;;4960485;28;20023;-94
2023/03/19 09:38:05;;;;;;;5.00;0.90;;;9.10;99.90;;;;;;4959564;28;20035;-95
2023/03/19 09:40:40;;;;;;;6.43;1.00;;;9.20;99.90;;;;;;4959632;28;20089;-95
2023/03/19 09:43:25;;;;;;;5.10;0.50;;;9.40;99.90;;;;;;4959282;28;20090;-95
2023/03/19 09:45:54;;;;;;;4.55;0.68;;;9.50;99.90;;;;;;4958850;28;20507;-94
2023/03/19 09:48:41;;;;;;;5.93;1.80;;;9.50;99.90;;;;;;4958465;28;20539;-94
2023/03/19 09:51:12;;;;;;;5.25;0.77;;;9.50;99.90;;;;;;4959270;28;20552;-94
2023/03/19 09:53:48;;;;;;;3.90;0.90;;;9.60;99.90;;;;;;4975813;28;20038;-94
2023/03/19 09:56:17;;;;;;;4.43;0.80;;;9.70;99.90;;;;;;4959425;28;20031;-94
2023/03/19 09:58:49;;;;;;;3.25;0.73;;;9.80;99.90;;;;;;4958990;28;20035;-94
2023/03/19 10:01:44;;;;;;;5.88;0.90;;;9.90;99.90;;;;;;4959825;28;20056;-95
2023/03/19 10:04:26;;;;;;;7.65;1.02;;;10.00;99.90;;;;;;4957691;28;20023;-94
2023/03/19 10:07:12;;;;;;;2.88;0.50;;;10.00;99.90;;;;;;4957822;28;20046;-95
2023/03/19 10:10:02;;;;;;;6.35;0.80;;;10.10;99.90;;;;;;4959178;28;20038;-95
2023/03/19 10:13:22;;;;;;;;;;;;;;;;;;;;;
2023/03/19 10:19:09;;;;;;;5.90;1.20;;;10.40;99.90;;;;;;4976117;28;20030;-94
2023/03/19 10:22:02;;;;;;;;;;;;;;;;;;;;;
2023/03/19 10:24:42;;;;;;;9.30;1.90;;;10.80;99.90;;;;;;4927038;28;20046;-95
2023/03/19 10:27:25;;;;;;;3.25;0.93;;;11.10;99.90;;;;;;4978696;28;20034;-94
2023/03/19 10:30:12;;;;;;;4.70;1.27;;;11.40;99.90;;;;;;4974304;28;20035;-94
2023/03/19 10:36:27;;;;;;;4.35;0.88;;;12.00;99.90;;;;;;4938509;29;20050;-94
2023/03/19 10:39:17;;;;;;;4.80;0.98;;;12.40;99.90;;;;;;4922968;29;20045;-95
2023/03/19 10:42:31;;;;;;;6.57;1.00;;;12.60;99.90;;;;;;4922172;29;20061;-96
2023/03/19 10:45:49;;;;;;;6.45;1.10;;;12.80;99.40;;;;;;4937366;29;20149;-94
2023/03/19 10:48:28;;;;;;;8.23;1.48;;;13.00;96.70;;;;;;4921965;29;20032;-94
2023/03/19 10:51:11;;;;;;;10.70;1.40;;;13.10;95.80;;;;;;4908476;29;20127;-94
2023/03/19 10:53:44;;;;;;;6.75;1.30;;;13.20;95.20;;;;;;4923401;29;20040;-95
2023/03/19 10:56:35;;;;;;;4.40;0.82;;;13.30;94.10;;;;;;4918252;28;20028;-94
2023/03/19 10:59:35;;;;;;;5.32;1.05;;;13.30;93.00;;;;;;4978757;28;20171;-93
2023/03/19 11:02:32;;;;;;;8.95;2.08;;;13.40;92.40;;;;;;4977510;28;20126;-95
2023/03/19 11:05:17;;;;;;;5.70;1.17;;;13.50;91.70;;;;;;4971167;28;20034;-95
2023/03/19 11:08:12;;;;;;;6.53;1.13;;;13.60;91.30;;;;;;4979062;28;20050;-94
2023/03/19 11:11:41;;;;;;;;;;;;;;;;;;;;;
2023/03/19 11:14:53;;;;;;;;;;;;;;;;;;;;;
2023/03/19 11:17:56;;;;;;;5.63;1.05;;;13.70;89.70;;;;;;4974406;28;20481;-95
2023/03/19 11:21:17;;;;;;;6.32;1.00;;;13.90;89.40;;;;;;4960091;28;20035;-96
2023/03/19 11:23:39;;;;;;;4.88;1.00;;;14.10;87.20;;;;;;4963794;28;20170;-94
2023/03/19 11:26:46;;;;;;;;;;;14.10;87.20;;;;;;4944991;28;20043;-95
2023/03/19 11:29:24;;;;;;;5.97;1.08;;;14.20;86.40;;;;;;4898808;29;19916;-95
2023/03/19 11:32:31;;;;;;;1.38;0.70;;;14.40;85.80;;;;;;4883311;29;20487;-95
2023/03/19 11:35:34;;;;;;;2.95;0.75;;;14.70;84.90;;;;;;4898341;29;20123;-94
2023/03/19 11:38:50;;;;;;;4.57;1.02;;;15.00;83.80;;;;;;4898105;29;20036;-95
2023/03/19 11:41:49;;;;;;;4.97;0.73;;;15.00;81.50;;;;;;4905322;29;20036;-94
2023/03/19 11:44:36;;;;;;;7.13;1.20;;;14.90;80.10;;;;;;4903343;29;20497;-95
2023/03/19 11:47:36;;;;;;;8.85;1.45;;;15.00;79.60;;;;;;4917781;29;20482;-95
2023/03/19 11:50:31;;;;;;;7.03;1.08;;;15.10;80.20;;;;;;4917767;29;20084;-94
2023/03/19 11:53:23;;;;;;;3.88;1.00;;;15.40;79.30;;;;;;4902045;29;20078;-95
2023/03/19 11:56:18;;;;;;;7.18;1.17;;;15.60;78.70;;;;;;4917357;29;20055;-95
2023/03/19 12:02:20;;;;;;;4.18;1.20;;;15.70;75.60;;;;;;4902685;28;20034;-94
2023/03/19 12:05:26;;;;;;;6.57;1.27;;;15.80;75.90;;;;;;4975518;28;20058;-96
2023/03/19 12:08:13;;;;;;;5.60;0.98;;;15.90;76.10;;;;;;4959608;28;20172;-94
2023/03/19 12:10:50;;;;;;;6.32;0.95;;;16.10;74.70;;;;;;4959852;28;20034;-95
2023/03/19 12:13:27;;;;;;;5.85;0.75;;;15.90;73.60;;;;;;4959121;28;20081;-94
2023/03/19 12:16:43;;;;;;;6.55;1.00;;;15.90;74.40;;;;;;4959150;28;20023;-96
2023/03/19 12:19:24;;;;;;;3.25;1.00;;;16.00;74.30;;;;;;4864291;29;20135;-93
2023/03/19 12:21:50;;;;;;;5.45;0.90;;;16.00;74.10;;;;;;4864186;29;20033;-95
2023/03/19 12:25:04;;;;;;;9.35;1.40;;;16.10;74.10;;;;;;4864081;29;20527;-94
2023/03/19 12:27:54;;;;;;;2.95;0.80;;;16.20;73.20;;;;;;4853247;29;20079;-95
2023/03/19 12:30:44;;;;;;;2.83;0.77;;;16.30;72.60;;;;;;4891973;29;20049;-95
2023/03/19 12:33:33;;;;;;;5.60;1.17;;;16.30;71.30;;;;;;4884704;29;20117;-95
2023/03/19 12:36:01;;;;;;;7.72;1.15;;;16.10;69.90;;;;;;4886731;29;20044;-96
2023/03/19 12:38:31;;;;;;;4.90;1.50;;;15.80;70.60;;;;;;4887294;29;20057;-95
2023/03/19 12:40:59;;;;;;;3.65;0.93;;;15.50;71.50;;;;;;4886577;29;20025;-95
2023/03/19 12:43:41;;;;;;;4.07;1.20;;;15.30;72.40;;;;;;4887567;29;20104;-94
2023/03/19 12:46:20;;;;;;;8.55;1.38;;;15.20;73.60;;;;;;4887387;29;20060;-95
2023/03/19 12:49:01;;;;;;;6.13;1.50;;;15.00;73.70;;;;;;4887053;29;20029;-96
2023/03/19 12:51:37;;;;;;;9.55;1.08;;;15.00;74.50;;;;;;4887056;29;20017;-95
2023/03/19 12:54:16;;;;;;;8.95;1.55;;;15.30;75.10;;;;;;4920560;28;20042;-94
2023/03/19 12:57:07;;;;;;;10.60;2.05;;;15.50;73.70;;;;;;4982426;28;20027;-95
2023/03/19 12:59:52;;;;;;;6.00;1.48;;;15.20;72.00;;;;;;4982082;28;20110;-95
2023/03/19 13:02:47;;;;;;;8.10;1.25;;;15.10;73.00;;;;;;4981700;28;20106;-95
2023/03/19 13:05:51;;;;;;;3.42;0.88;;;15.20;73.10;;;;;;4982466;28;20011;-96
2023/03/19 13:08:36;;;;;;;5.07;1.05;;;15.40;73.50;;;;;;4980413;28;20031;-95
2023/03/19 13:11:16;;;;;;;5.78;1.00;;;15.30;71.70;;;;;;4980974;28;20027;-95
2023/03/19 13:13:49;;;;;;;8.43;1.13;;;15.10;72.40;;;;;;4996175;28;20050;-94
2023/03/19 13:16:42;;;;;;;4.43;1.10;;;15.00;72.30;;;;;;4979659;28;20056;-95
2023/03/19 13:19:30;;;;;;;3.13;0.73;;;14.80;71.90;;;;;;4979114;28;20018;-95
2023/03/19 13:22:00;;;;;;;9.50;1.73;;;14.40;72.30;;;;;;4975885;28;20030;-95
2023/03/19 13:24:40;;;;;;;4.55;1.08;;;14.20;73.40;;;;;;4978744;28;20018;-94
2023/03/19 13:27:14;;;;;;;4.05;1.10;;;14.10;73.90;;;;;;4979263;28;20051;-93
2023/03/19 13:29:56;;;;;;;4.35;1.30;;;13.90;74.20;;;;;;4978039;28;20022;-95
2023/03/19 13:32:48;;;;;;;5.53;0.98;;;14.00;75.20;;;;;;4980484;28;20037;-95